Time;durP1;ratioP1;P1;durP2;ratioP2;P2;SDS_P1;SDS_P2;PMS_P1;PMS_P2;Temp;Humidity;BMP_temperature;BMP_pressure;BME280_temperature;BME280_humidity;BME280_pressure;Samples;Min_cycle;Max_cycle;Signal;HPM_P1;HPM_P2
2021/05/03 00:01:22;;;;;;;0.13;0.13;;;;;;;;;;5027252;28;20166;-73
2021/05/03 00:03:49;;;;;;;0.10;0.10;;;;;;;;;;5027630;28;20194;-73
2021/05/03 00:06:15;;;;;;;0.10;0.10;;;;;;;;;;5027602;28;20158;-73
2021/05/03 00:08:41;;;;;;;0.63;0.55;;;;;;;;;;5009401;28;20190;-70
2021/05/03 00:11:08;;;;;;;0.10;0.10;;;;;;;;;;5027545;28;20613;-73
2021/05/03 00:13:34;;;;;;;0.05;0.05;;;;;;;;;;5027405;28;20198;-73
2021/05/03 00:16:00;;;;;;;0.10;0.10;;;;;;;;;;5027315;28;20162;-73
2021/05/03 00:18:26;;;;;;;0.10;0.10;;;;;;;;;;5027389;28;20198;-73
2021/05/03 00:20:52;;;;;;;0.20;0.20;;;;;;;;;;5027381;28;20597;-73
2021/05/03 00:23:19;;;;;;;0.30;0.30;;;;;;;;;;5009123;28;20240;-73
2021/05/03 00:25:45;;;;;;;0.10;0.10;;;;;;;;;;5027505;28;20155;-74
2021/05/03 00:28:11;;;;;;;0.10;0.10;;;;;;;;;;5021193;28;20205;-73
2021/05/03 00:30:37;;;;;;;1.00;0.75;;;;;;;;;;5009425;28;20244;-73
2021/05/03 00:33:05;;;;;;;0.30;0.30;;;;;;;;;;5009635;28;20177;-73
2021/05/03 00:35:33;;;;;;;0.10;0.10;;;;;;;;;;5027082;28;20209;-73
2021/05/03 00:38:00;;;;;;;0.10;0.10;;;;;;;;;;5026917;28;20162;-73
2021/05/03 00:40:27;;;;;;;0.25;0.25;;;;;;;;;;5027052;28;20176;-73
2021/05/03 00:42:54;;;;;;;0.10;0.10;;;;;;;;;;5009126;28;20198;-73
2021/05/03 00:45:21;;;;;;;0.10;0.10;;;;;;;;;;5027558;28;20640;-74
2021/05/03 00:47:48;;;;;;;0.10;0.10;;;;;;;;;;5030851;28;20163;-72
2021/05/03 00:50:15;;;;;;;0.05;0.05;;;;;;;;;;5013215;28;20224;-71
2021/05/03 00:52:42;;;;;;;0.20;0.20;;;;;;;;;;5013401;28;20535;-72
2021/05/03 00:55:09;;;;;;;0.10;0.10;;;;;;;;;;5012879;28;20177;-71
2021/05/03 00:57:36;;;;;;;0.10;0.10;;;;;;;;;;5013037;28;20178;-72
2021/05/03 01:00:04;;;;;;;0.10;0.10;;;;;;;;;;5030628;28;20217;-71
2021/05/03 01:02:30;;;;;;;0.10;0.10;;;;;;;;;;5030339;28;20545;-71
2021/05/03 01:04:56;;;;;;;0.10;0.10;;;;;;;;;;5013086;28;20241;-71
2021/05/03 01:07:23;;;;;;;0.28;0.28;;;;;;;;;;5024650;28;20208;-72
2021/05/03 01:09:49;;;;;;;0.10;0.10;;;;;;;;;;5010467;28;20194;-72
2021/05/03 01:12:15;;;;;;;0.52;0.52;;;;;;;;;;4993202;28;20209;-72
2021/05/03 01:14:41;;;;;;;0.68;0.10;;;;;;;;;;5010822;28;20182;-71
2021/05/03 01:17:07;;;;;;;0.10;0.10;;;;;;;;;;4992763;28;20185;-71
2021/05/03 01:19:33;;;;;;;0.10;0.10;;;;;;;;;;4993155;28;20197;-72
2021/05/03 01:22:00;;;;;;;0.03;0.03;;;;;;;;;;4985600;28;20215;-71
2021/05/03 01:24:26;;;;;;;0.10;0.10;;;;;;;;;;4990768;28;20206;-72
2021/05/03 01:26:52;;;;;;;0.00;0.00;;;;;;;;;;4991125;28;20167;-73
2021/05/03 01:29:18;;;;;;;0.08;0.08;;;;;;;;;;4991056;28;20171;-73
2021/05/03 01:31:49;;;;;;;0.35;0.35;;;;;;;;;;4990506;28;20164;-73
2021/05/03 01:34:15;;;;;;;0.10;0.10;;;;;;;;;;4991089;28;20280;-73
2021/05/03 01:36:42;;;;;;;0.05;0.05;;;;;;;;;;4991177;28;20175;-71
2021/05/03 01:39:13;;;;;;;0.10;0.10;;;;;;;;;;4990753;28;20214;-71
2021/05/03 01:41:39;;;;;;;0.80;0.63;;;;;;;;;;4990879;28;20203;-73
2021/05/03 01:44:07;;;;;;;0.10;0.10;;;;;;;;;;4973575;28;20207;-73
2021/05/03 01:46:34;;;;;;;0.10;0.10;;;;;;;;;;4973248;28;20175;-74
2021/05/03 01:49:01;;;;;;;0.40;0.40;;;;;;;;;;4973535;28;20223;-73
2021/05/03 01:51:27;;;;;;;0.20;0.20;;;;;;;;;;4990885;28;20168;-73
2021/05/03 01:53:54;;;;;;;0.28;0.28;;;;;;;;;;4973152;28;20227;-73
2021/05/03 01:56:21;;;;;;;0.28;0.15;;;;;;;;;;4990525;28;20167;-73
2021/05/03 01:58:47;;;;;;;0.10;0.10;;;;;;;;;;4972338;28;20199;-73
2021/05/03 02:01:13;;;;;;;0.10;0.10;;;;;;;;;;4990349;28;20181;-73
2021/05/03 02:03:39;;;;;;;0.08;0.08;;;;;;;;;;4973193;28;20199;-73
2021/05/03 02:06:06;;;;;;;0.10;0.10;;;;;;;;;;4990641;28;20179;-72
2021/05/03 02:08:33;;;;;;;0.10;0.10;;;;;;;;;;4990261;28;20210;-73
2021/05/03 02:10:59;;;;;;;0.52;0.30;;;;;;;;;;4990617;28;20180;-71
2021/05/03 02:13:27;;;;;;;0.20;0.20;;;;;;;;;;4973126;28;20182;-73
2021/05/03 02:15:53;;;;;;;0.10;0.10;;;;;;;;;;4972840;28;20200;-73
2021/05/03 02:18:20;;;;;;;0.20;0.20;;;;;;;;;;4972939;28;20224;-74
2021/05/03 02:20:47;;;;;;;0.10;0.10;;;;;;;;;;4972864;28;20264;-74
2021/05/03 02:23:13;;;;;;;3.92;1.00;;;;;;;;;;4972434;28;20231;-73
2021/05/03 02:25:40;;;;;;;0.22;0.20;;;;;;;;;;4990278;28;20580;-74
2021/05/03 02:28:06;;;;;;;1.73;0.35;;;;;;;;;;4972687;28;20286;-73
2021/05/03 02:30:32;;;;;;;0.10;0.10;;;;;;;;;;4972377;28;20177;-73
2021/05/03 02:32:58;;;;;;;0.10;0.10;;;;;;;;;;4989759;28;20261;-72
2021/05/03 02:35:28;;;;;;;0.20;0.20;;;;;;;;;;4989916;28;20254;-73
2021/05/03 02:37:58;;;;;;;0.10;0.10;;;;;;;;;;4972284;28;20206;-73
2021/05/03 02:40:24;;;;;;;0.20;0.20;;;;;;;;;;5006633;28;20241;-73
2021/05/03 02:42:54;;;;;;;0.10;0.10;;;;;;;;;;5009092;28;20190;-73
2021/05/03 02:45:22;;;;;;;0.10;0.10;;;;;;;;;;4995686;28;20183;-72
2021/05/03 02:47:48;;;;;;;0.30;0.30;;;;;;;;;;4991396;28;20213;-72
2021/05/03 02:50:15;;;;;;;0.10;0.10;;;;;;;;;;4987819;28;20482;-74
2021/05/03 02:52:42;;;;;;;1.38;0.30;;;;;;;;;;4971598;28;20187;-73
2021/05/03 02:55:10;;;;;;;0.10;0.10;;;;;;;;;;4989115;28;20167;-73
2021/05/03 02:57:37;;;;;;;0.00;0.00;;;;;;;;;;4988346;28;20203;-73
2021/05/03 03:00:05;;;;;;;0.10;0.10;;;;;;;;;;4988926;28;20218;-71
2021/05/03 03:02:31;;;;;;;0.28;0.28;;;;;;;;;;4998144;28;20195;-72
2021/05/03 03:04:57;;;;;;;0.10;0.10;;;;;;;;;;4990880;28;20159;-72
2021/05/03 03:07:23;;;;;;;0.10;0.10;;;;;;;;;;4990471;28;20201;-72
2021/05/03 03:09:50;;;;;;;0.20;0.20;;;;;;;;;;5007927;28;20167;-72
2021/05/03 03:12:16;;;;;;;0.10;0.10;;;;;;;;;;5008032;28;20163;-72
2021/05/03 03:14:42;;;;;;;0.20;0.20;;;;;;;;;;5007991;28;20225;-72
2021/05/03 03:17:09;;;;;;;0.10;0.10;;;;;;;;;;5008271;28;20629;-73
2021/05/03 03:19:39;;;;;;;0.20;0.20;;;;;;;;;;4990611;28;20166;-73
2021/05/03 03:22:05;;;;;;;0.47;0.47;;;;;;;;;;5015904;28;20232;-73
2021/05/03 03:24:32;;;;;;;0.10;0.10;;;;;;;;;;5027788;28;20205;-72
2021/05/03 03:26:58;;;;;;;0.10;0.10;;;;;;;;;;5010032;28;20232;-71
2021/05/03 03:29:24;;;;;;;0.80;0.80;;;;;;;;;;5027366;28;20162;-72
2021/05/03 03:31:50;;;;;;;0.63;0.40;;;;;;;;;;5027638;28;20182;-72
2021/05/03 03:34:17;;;;;;;0.10;0.10;;;;;;;;;;5009912;28;20170;-72
2021/05/03 03:36:43;;;;;;;0.03;0.03;;;;;;;;;;5009884;28;20641;-73
2021/05/03 03:39:09;;;;;;;0.20;0.20;;;;;;;;;;5009398;28;20220;-72
2021/05/03 03:41:36;;;;;;;0.20;0.20;;;;;;;;;;5009533;28;20189;-72
2021/05/03 03:44:03;;;;;;;0.30;0.30;;;;;;;;;;5026852;28;20219;-71
2021/05/03 03:46:29;;;;;;;0.65;0.65;;;;;;;;;;5027186;28;20173;-72
2021/05/03 03:48:56;;;;;;;0.13;0.13;;;;;;;;;;5027416;28;20230;-72
2021/05/03 03:51:22;;;;;;;0.20;0.20;;;;;;;;;;5026688;28;20168;-71
2021/05/03 03:53:49;;;;;;;0.10;0.10;;;;;;;;;;5009095;28;20297;-71
2021/05/03 03:56:16;;;;;;;0.38;0.38;;;;;;;;;;5027900;28;20158;-74
2021/05/03 03:58:43;;;;;;;0.30;0.30;;;;;;;;;;5027247;28;20154;-73
2021/05/03 04:01:10;;;;;;;0.10;0.10;;;;;;;;;;5009811;28;20178;-72
2021/05/03 04:03:46;;;;;;;0.10;0.10;;;;;;;;;;5027533;28;20193;-72
2021/05/03 04:06:42;;;;;;;0.38;0.30;;;;;;;;;;5027768;28;20154;-73
2021/05/03 04:22:17;;;;;;;0.10;0.10;;;;;;;;;;5030198;28;20226;-71
2021/05/03 04:27:17;;;;;;;0.20;0.20;;;;;;;;;;5031773;28;20177;-71
2021/05/03 04:29:43;;;;;;;0.50;0.50;;;;;;;;;;5013525;28;20319;-72
2021/05/03 04:32:10;;;;;;;0.20;0.20;;;;;;;;;;5031383;28;20189;-71
2021/05/03 04:34:36;;;;;;;0.40;0.40;;;;;;;;;;5013250;28;20197;-72
2021/05/03 04:37:02;;;;;;;0.20;0.20;;;;;;;;;;5031041;28;20162;-73
2021/05/03 04:39:28;;;;;;;0.20;0.20;;;;;;;;;;5031394;28;20289;-74
2021/05/03 04:41:54;;;;;;;0.00;0.00;;;;;;;;;;5031552;28;20154;-73
2021/05/03 04:44:21;;;;;;;0.50;0.50;;;;;;;;;;5013387;28;20205;-72
2021/05/03 04:46:47;;;;;;;0.25;0.20;;;;;;;;;;5030557;28;20162;-73
2021/05/03 04:49:13;;;;;;;0.10;0.10;;;;;;;;;;5031312;28;20166;-72
2021/05/03 04:51:39;;;;;;;0.15;0.15;;;;;;;;;;5012708;28;20194;-73
2021/05/03 04:54:05;;;;;;;1.30;1.23;;;;;;;;;;5011825;28;20198;-73
2021/05/03 04:56:32;;;;;;;0.10;0.10;;;;;;;;;;5013460;28;20185;-73
2021/05/03 04:58:58;;;;;;;0.20;0.20;;;;;;;;;;5030717;28;20205;-73
2021/05/03 05:01:24;;;;;;;0.10;0.10;;;;;;;;;;5013226;28;20189;-72
2021/05/03 05:03:50;;;;;;;0.82;0.68;;;;;;;;;;5030840;28;20194;-76
2021/05/03 05:06:16;;;;;;;0.20;0.20;;;;;;;;;;5013551;28;20174;-73
2021/05/03 05:08:43;;;;;;;0.10;0.10;;;;;;;;;;5013290;28;20510;-72
2021/05/03 05:11:09;;;;;;;0.30;0.30;;;;;;;;;;5013006;28;20652;-73
2021/05/03 05:13:35;;;;;;;0.20;0.20;;;;;;;;;;5030684;28;20167;-74
2021/05/03 05:16:01;;;;;;;0.10;0.10;;;;;;;;;;5012895;28;20215;-73
2021/05/03 05:18:27;;;;;;;0.10;0.10;;;;;;;;;;5030581;28;20233;-72
2021/05/03 05:20:53;;;;;;;0.30;0.30;;;;;;;;;;5030560;28;20170;-73
2021/05/03 05:23:20;;;;;;;0.20;0.20;;;;;;;;;;5012520;28;20294;-73
2021/05/03 05:25:46;;;;;;;0.15;0.15;;;;;;;;;;5030416;28;20198;-72
2021/05/03 05:28:12;;;;;;;0.47;0.47;;;;;;;;;;5012718;28;20178;-72
2021/05/03 05:30:38;;;;;;;0.10;0.10;;;;;;;;;;5012643;28;20166;-76
2021/05/03 05:33:04;;;;;;;0.20;0.20;;;;;;;;;;5012005;28;20246;-73
2021/05/03 05:35:31;;;;;;;0.35;0.15;;;;;;;;;;5030343;28;20214;-75
2021/05/03 05:37:57;;;;;;;0.38;0.38;;;;;;;;;;5029710;28;20378;-73
2021/05/03 05:40:23;;;;;;;0.10;0.10;;;;;;;;;;4992725;28;20185;-72
2021/05/03 05:42:49;;;;;;;4.32;1.10;;;;;;;;;;5005627;28;20260;-73
2021/05/03 05:45:16;;;;;;;0.10;0.10;;;;;;;;;;5012397;28;20193;-71
2021/05/03 05:47:42;;;;;;;0.47;0.47;;;;;;;;;;5029948;28;20160;-72
2021/05/03 05:50:09;;;;;;;0.20;0.20;;;;;;;;;;5012137;28;20216;-74
2021/05/03 05:52:35;;;;;;;0.10;0.10;;;;;;;;;;5030064;28;20257;-72
2021/05/03 05:55:01;;;;;;;0.20;0.20;;;;;;;;;;5011943;28;20731;-72
2021/05/03 05:57:27;;;;;;;0.30;0.30;;;;;;;;;;5012133;28;20189;-72
2021/05/03 05:59:53;;;;;;;0.10;0.10;;;;;;;;;;5030027;28;20158;-73
2021/05/03 06:02:19;;;;;;;0.60;0.60;;;;;;;;;;5011699;28;20166;-73
2021/05/03 06:04:46;;;;;;;2.10;1.27;;;;;;;;;;5029586;28;20210;-75
2021/05/03 06:07:12;;;;;;;2.75;0.93;;;;;;;;;;5011963;28;20170;-73
2021/05/03 06:09:38;;;;;;;0.75;0.75;;;;;;;;;;5012134;28;20538;-73
2021/05/03 06:12:04;;;;;;;0.88;0.88;;;;;;;;;;5010362;28;20292;-72
2021/05/03 06:14:31;;;;;;;0.43;0.43;;;;;;;;;;5029190;28;20215;-72
2021/05/03 06:16:57;;;;;;;0.30;0.20;;;;;;;;;;5029417;28;20212;-73
2021/05/03 06:19:23;;;;;;;2.50;1.17;;;;;;;;;;5029348;28;20170;-73
2021/05/03 06:21:49;;;;;;;0.40;0.40;;;;;;;;;;5029361;28;20234;-73
2021/05/03 06:24:15;;;;;;;0.20;0.20;;;;;;;;;;5011583;28;20205;-72
2021/05/03 06:26:41;;;;;;;0.60;0.60;;;;;;;;;;5011174;28;20170;-72
2021/05/03 06:29:08;;;;;;;0.47;0.47;;;;;;;;;;5029283;28;20172;-74
2021/05/03 06:31:34;;;;;;;0.30;0.30;;;;;;;;;;5029065;28;20165;-73
2021/05/03 06:34:00;;;;;;;0.57;0.57;;;;;;;;;;5029309;28;20517;-72
2021/05/03 06:36:26;;;;;;;0.32;0.28;;;;;;;;;;5029352;28;20162;-73
2021/05/03 06:38:52;;;;;;;0.10;0.10;;;;;;;;;;5007950;28;20196;-73
2021/05/03 06:41:19;;;;;;;0.10;0.10;;;;;;;;;;5009578;28;20170;-72
2021/05/03 06:43:45;;;;;;;0.90;0.90;;;;;;;;;;5008598;28;20708;-72
2021/05/03 06:46:11;;;;;;;1.10;0.73;;;;;;;;;;5028381;28;20169;-71
2021/05/03 06:48:37;;;;;;;0.52;0.52;;;;;;;;;;5029618;28;20574;-71
2021/05/03 06:51:03;;;;;;;0.73;0.73;;;;;;;;;;5030092;28;20165;-72
2021/05/03 06:53:29;;;;;;;0.75;0.65;;;;;;;;;;5029667;28;20198;-71
2021/05/03 06:55:56;;;;;;;4.10;1.55;;;;;;;;;;5029667;28;20166;-72
2021/05/03 06:58:22;;;;;;;0.20;0.10;;;;;;;;;;5012241;28;20172;-72
2021/05/03 07:00:48;;;;;;;0.25;0.25;;;;;;;;;;5030005;28;20628;-72
2021/05/03 07:03:14;;;;;;;0.10;0.10;;;;;;;;;;5011757;28;20214;-73
2021/05/03 07:05:40;;;;;;;0.30;0.30;;;;;;;;;;5011625;28;20166;-75
2021/05/03 07:08:10;;;;;;;0.00;0.00;;;;;;;;;;5012384;28;20192;-74
2021/05/03 07:10:38;;;;;;;0.10;0.10;;;;;;;;;;5028594;28;20617;-71
2021/05/03 07:13:05;;;;;;;0.93;0.57;;;;;;;;;;5009697;28;20198;-73
2021/05/03 07:15:31;;;;;;;0.57;0.52;;;;;;;;;;4991418;28;20190;-73
2021/05/03 07:17:57;;;;;;;0.20;0.20;;;;;;;;;;4991375;28;20206;-75
2021/05/03 07:20:27;;;;;;;0.43;0.28;;;;;;;;;;5010655;28;20181;-74
2021/05/03 07:22:53;;;;;;;0.65;0.65;;;;;;;;;;5027870;28;20342;-73
2021/05/03 07:25:19;;;;;;;0.88;0.75;;;;;;;;;;5010706;28;20189;-72
2021/05/03 07:27:45;;;;;;;0.10;0.10;;;;;;;;;;5027652;28;20168;-77
2021/05/03 07:30:12;;;;;;;0.20;0.20;;;;;;;;;;5025563;28;20166;-71
2021/05/03 07:32:38;;;;;;;0.60;0.43;;;;;;;;;;5009967;28;20193;-73
2021/05/03 07:35:05;;;;;;;0.38;0.38;;;;;;;;;;5010335;28;20230;-74
2021/05/03 07:37:31;;;;;;;0.60;0.60;;;;;;;;;;5027470;28;20166;-71
2021/05/03 07:39:58;;;;;;;0.80;0.80;;;;;;;;;;5006392;28;20177;-72
2021/05/03 07:42:24;;;;;;;0.77;0.77;;;;;;;;;;5007663;28;20364;-72
2021/05/03 07:44:51;;;;;;;0.10;0.10;;;;;;;;;;5022847;28;20228;-74
2021/05/03 07:47:17;;;;;;;0.30;0.30;;;;;;;;;;5009731;28;20181;-74
2021/05/03 07:49:43;;;;;;;0.20;0.20;;;;;;;;;;5027170;28;20169;-73
2021/05/03 07:52:09;;;;;;;0.45;0.45;;;;;;;;;;5026752;28;20232;-72
2021/05/03 07:54:36;;;;;;;0.57;0.45;;;;;;;;;;5026860;28;20189;-71
2021/05/03 07:57:02;;;;;;;0.35;0.35;;;;;;;;;;5026009;28;20244;-71
2021/05/03 07:59:28;;;;;;;0.40;0.40;;;;;;;;;;4993573;28;20251;-71
2021/05/03 08:01:55;;;;;;;0.60;0.30;;;;;;;;;;5025969;28;20162;-73
2021/05/03 08:04:21;;;;;;;0.65;0.40;;;;;;;;;;5021844;28;20185;-73
2021/05/03 08:06:48;;;;;;;0.10;0.10;;;;;;;;;;5007343;28;20155;-73
2021/05/03 08:09:14;;;;;;;1.88;0.40;;;;;;;;;;5007488;28;20238;-72
2021/05/03 08:11:44;;;;;;;0.65;0.65;;;;;;;;;;5007015;28;20238;-72
2021/05/03 08:14:12;;;;;;;0.35;0.35;;;;;;;;;;4989130;28;20209;-72
2021/05/03 08:16:39;;;;;;;0.52;0.52;;;;;;;;;;5013291;28;20636;-72
2021/05/03 08:19:06;;;;;;;0.40;0.40;;;;;;;;;;5026282;28;20586;-72
2021/05/03 08:21:32;;;;;;;0.25;0.20;;;;;;;;;;5022827;28;20237;-72
2021/05/03 08:23:58;;;;;;;0.65;0.60;;;;;;;;;;5007051;28;20217;-71
2021/05/03 08:26:24;;;;;;;0.60;0.50;;;;;;;;;;4989991;28;20572;-71
2021/05/03 08:28:50;;;;;;;0.10;0.10;;;;;;;;;;5006773;28;20163;-71
2021/05/03 08:31:17;;;;;;;0.77;0.55;;;;;;;;;;5007192;28;20162;-73
2021/05/03 08:33:43;;;;;;;0.00;0.00;;;;;;;;;;5006987;28;20193;-72
2021/05/03 08:36:09;;;;;;;0.22;0.22;;;;;;;;;;4989182;28;20189;-71
2021/05/03 08:38:35;;;;;;;0.43;0.43;;;;;;;;;;4989781;28;20225;-72
2021/05/03 08:41:03;;;;;;;0.43;0.43;;;;;;;;;;5006880;28;20541;-72
2021/05/03 08:43:31;;;;;;;0.10;0.10;;;;;;;;;;5006707;28;20202;-72
2021/05/03 08:45:57;;;;;;;0.40;0.40;;;;;;;;;;4998629;28;20174;-72
2021/05/03 08:48:33;;;;;;;0.05;0.05;;;;;;;;;;4987759;28;20509;-71
2021/05/03 08:51:10;;;;;;;0.50;0.43;;;;;;;;;;4991976;28;20177;-71
2021/05/03 08:53:41;;;;;;;0.20;0.20;;;;;;;;;;5006577;28;20558;-72
2021/05/03 08:56:07;;;;;;;0.20;0.20;;;;;;;;;;4988353;28;20185;-71
2021/05/03 08:58:40;;;;;;;0.25;0.22;;;;;;;;;;5005251;28;20193;-73
2021/05/03 09:01:07;;;;;;;0.13;0.13;;;;;;;;;;5006979;28;20247;-72
2021/05/03 09:03:37;;;;;;;0.10;0.10;;;;;;;;;;4989678;28;20288;-72
2021/05/03 09:06:06;;;;;;;0.32;0.17;;;;;;;;;;5006950;28;20163;-72
2021/05/03 09:08:33;;;;;;;0.10;0.10;;;;;;;;;;4993692;28;20186;-72
2021/05/03 09:10:59;;;;;;;0.28;0.28;;;;;;;;;;4993370;28;20177;-73
2021/05/03 09:13:30;;;;;;;0.50;0.50;;;;;;;;;;5010744;28;20210;-72
2021/05/03 09:16:31;;;;;;;0.30;0.30;;;;;;;;;;4993194;28;20175;-72
2021/05/03 09:19:00;;;;;;;0.10;0.10;;;;;;;;;;4957970;29;20191;-72
2021/05/03 09:21:32;;;;;;;0.10;0.10;;;;;;;;;;4953494;28;20242;-72
2021/05/03 09:24:12;;;;;;;0.63;0.63;;;;;;;;;;4969632;29;20218;-73
2021/05/03 09:26:42;;;;;;;0.50;0.50;;;;;;;;;;4969355;29;20193;-73
2021/05/03 09:29:24;;;;;;;0.00;0.00;;;;;;;;;;4969627;29;20233;-72
2021/05/03 09:32:00;;;;;;;0.82;0.82;;;;;;;;;;4969516;29;20175;-72
2021/05/03 09:34:36;;;;;;;0.45;0.45;;;;;;;;;;4969064;29;20271;-72
2021/05/03 09:37:22;;;;;;;0.65;0.65;;;;;;;;;;4953413;29;20168;-72
2021/05/03 09:39:57;;;;;;;0.80;0.80;;;;;;;;;;4969389;29;20187;-71
2021/05/03 09:42:24;;;;;;;0.10;0.10;;;;;;;;;;4952700;29;20219;-72
2021/05/03 09:45:06;;;;;;;0.45;0.35;;;;;;;;;;4952954;29;20218;-72
2021/05/03 09:47:33;;;;;;;0.68;0.68;;;;;;;;;;4969337;29;20271;-74
2021/05/03 09:50:01;;;;;;;0.10;0.10;;;;;;;;;;4968665;29;20172;-73
2021/05/03 09:52:27;;;;;;;0.43;0.38;;;;;;;;;;4977927;28;20313;-73
2021/05/03 09:54:54;;;;;;;0.50;0.50;;;;;;;;;;4992578;28;20238;-73
2021/05/03 09:57:20;;;;;;;0.10;0.10;;;;;;;;;;5009808;28;20178;-73
2021/05/03 09:59:52;;;;;;;0.40;0.40;;;;;;;;;;5009897;28;20171;-72
2021/05/03 10:05:06;;;;;;;0.20;0.20;;;;;;;;;;5007441;28;20222;-71
2021/05/03 10:07:34;;;;;;;0.22;0.22;;;;;;;;;;5010030;28;20165;-73
2021/05/03 10:10:07;;;;;;;0.68;0.20;;;;;;;;;;5010043;28;20301;-71
2021/05/03 10:12:34;;;;;;;0.20;0.20;;;;;;;;;;4986995;28;20179;-71
2021/05/03 10:15:02;;;;;;;0.10;0.10;;;;;;;;;;4997973;28;20198;-72
2021/05/03 10:17:30;;;;;;;0.10;0.10;;;;;;;;;;4991166;28;20202;-72
2021/05/03 10:19:58;;;;;;;0.55;0.17;;;;;;;;;;4990187;28;20795;-72
2021/05/03 10:22:24;;;;;;;0.20;0.20;;;;;;;;;;5002194;28;20225;-71
2021/05/03 10:24:52;;;;;;;0.30;0.30;;;;;;;;;;5028121;28;20219;-72
2021/05/03 10:27:20;;;;;;;0.50;0.50;;;;;;;;;;5011269;28;20269;-74
2021/05/03 10:29:46;;;;;;;0.30;0.30;;;;;;;;;;5029818;28;20169;-71
2021/05/03 10:32:13;;;;;;;0.30;0.30;;;;;;;;;;5011852;28;20219;-73
2021/05/03 10:34:42;;;;;;;0.32;0.32;;;;;;;;;;5010293;28;20181;-73
2021/05/03 10:37:27;;;;;;;0.20;0.20;;;;;;;;;;5007484;28;20213;-72
2021/05/03 10:39:53;;;;;;;0.10;0.10;;;;;;;;;;5012105;28;20173;-71
2021/05/03 10:42:20;;;;;;;0.40;0.40;;;;;;;;;;5029502;28;20181;-72
2021/05/03 10:45:05;;;;;;;0.20;0.20;;;;;;;;;;5029404;28;20188;-73
2021/05/03 10:50:42;;;;;;;0.10;0.10;;;;;;;;;;5029559;28;20157;-73
2021/05/03 10:53:21;;;;;;;0.20;0.20;;;;;;;;;;5027853;28;20215;-74
2021/05/03 10:55:52;;;;;;;0.30;0.30;;;;;;;;;;5011478;28;20174;-74
2021/05/03 10:58:18;;;;;;;0.47;0.47;;;;;;;;;;5029333;28;20161;-73
2021/05/03 11:01:02;;;;;;;0.22;0.22;;;;;;;;;;5011558;28;20176;-73
2021/05/03 11:03:46;;;;;;;0.40;0.32;;;;;;;;;;5011406;28;20217;-73
2021/05/03 11:06:13;;;;;;;0.20;0.20;;;;;;;;;;5011376;28;20258;-72
2021/05/03 11:08:39;;;;;;;0.47;0.30;;;;;;;;;;5029167;28;20253;-73
2021/05/03 11:11:06;;;;;;;0.00;0.00;;;;;;;;;;5011243;28;20174;-73
2021/05/03 11:13:39;;;;;;;0.20;0.20;;;;;;;;;;5029117;28;20161;-72
2021/05/03 11:16:24;;;;;;;0.35;0.35;;;;;;;;;;5029204;28;20226;-72
2021/05/03 11:18:51;;;;;;;0.68;0.50;;;;;;;;;;5028902;28;20182;-72
2021/05/03 11:21:18;;;;;;;0.32;0.32;;;;;;;;;;5011107;28;20201;-73
2021/05/03 11:23:46;;;;;;;0.00;0.00;;;;;;;;;;5028664;28;20208;-72
2021/05/03 11:26:31;;;;;;;0.35;0.30;;;;;;;;;;5028848;28;20201;-72
2021/05/03 11:29:05;;;;;;;0.30;0.30;;;;;;;;;;5028655;28;20205;-73
2021/05/03 11:31:32;;;;;;;0.28;0.28;;;;;;;;;;5028541;28;20174;-72
2021/05/03 11:34:04;;;;;;;0.10;0.10;;;;;;;;;;5011012;28;20178;-72
2021/05/03 11:36:39;;;;;;;0.45;0.45;;;;;;;;;;5028752;28;20258;-72
2021/05/03 11:39:22;;;;;;;0.10;0.10;;;;;;;;;;5028534;28;20173;-71
2021/05/03 11:44:30;;;;;;;0.10;0.10;;;;;;;;;;5028770;28;20197;-73
2021/05/03 11:47:04;;;;;;;0.38;0.15;;;;;;;;;;5028401;28;20253;-73
2021/05/03 11:49:30;;;;;;;0.10;0.10;;;;;;;;;;5010772;28;20178;-72
2021/05/03 11:51:57;;;;;;;0.47;0.47;;;;;;;;;;5010324;28;20181;-72
2021/05/03 11:54:25;;;;;;;0.00;0.00;;;;;;;;;;5010613;28;20710;-73
2021/05/03 11:56:58;;;;;;;0.20;0.20;;;;;;;;;;5028479;28;20252;-73
2021/05/03 11:59:25;;;;;;;0.30;0.30;;;;;;;;;;5010424;28;20205;-71
2021/05/03 12:01:59;;;;;;;0.20;0.20;;;;;;;;;;5028172;28;20182;-77
2021/05/03 12:04:35;;;;;;;0.15;0.15;;;;;;;;;;5010715;28;20204;-75
2021/05/03 12:07:11;;;;;;;0.38;0.38;;;;;;;;;;5029028;28;20186;-75
2021/05/03 12:09:37;;;;;;;0.80;0.63;;;;;;;;;;5029295;28;20189;-77
2021/05/03 12:12:04;;;;;;;0.13;0.13;;;;;;;;;;5028495;28;20213;-77
2021/05/03 12:14:49;;;;;;;0.30;0.30;;;;;;;;;;5010729;28;20173;-77
2021/05/03 12:17:17;;;;;;;0.55;0.55;;;;;;;;;;5010611;28;20213;-76
2021/05/03 12:19:44;;;;;;;0.13;0.13;;;;;;;;;;5027992;28;20177;-77
2021/05/03 12:22:10;;;;;;;0.10;0.10;;;;;;;;;;5001783;28;20318;-77
2021/05/03 12:24:40;;;;;;;0.20;0.20;;;;;;;;;;5007978;28;20208;-76
2021/05/03 12:27:06;;;;;;;1.00;0.35;;;;;;;;;;5008202;28;20189;-78
2021/05/03 12:29:33;;;;;;;0.10;0.10;;;;;;;;;;4990980;28;20171;-77
2021/05/03 12:32:00;;;;;;;0.57;0.57;;;;;;;;;;4990785;28;20194;-76
2021/05/03 12:34:26;;;;;;;0.20;0.20;;;;;;;;;;5008566;28;20171;-77
2021/05/03 12:37:05;;;;;;;0.32;0.32;;;;;;;;;;5000834;28;20197;-77
2021/05/03 12:39:32;;;;;;;0.13;0.13;;;;;;;;;;5010427;28;20644;-76
2021/05/03 12:42:10;;;;;;;0.15;0.15;;;;;;;;;;5029355;28;20164;-76
2021/05/03 12:44:44;;;;;;;0.13;0.13;;;;;;;;;;5014194;28;20268;-76
2021/05/03 12:47:20;;;;;;;0.70;0.70;;;;;;;;;;5031911;28;20189;-76
2021/05/03 12:50:01;;;;;;;0.30;0.30;;;;;;;;;;5031872;28;20154;-77
2021/05/03 12:52:54;;;;;;;0.20;0.20;;;;;;;;;;5013998;28;20541;-76
2021/05/03 12:55:33;;;;;;;0.20;0.20;;;;;;;;;;5030427;28;20178;-76
2021/05/03 12:58:08;;;;;;;0.30;0.30;;;;;;;;;;5031598;28;20194;-76
2021/05/03 13:00:49;;;;;;;0.13;0.13;;;;;;;;;;5032419;28;20146;-77
2021/05/03 13:03:18;;;;;;;1.40;1.05;;;;;;;;;;5032554;28;20192;-76
2021/05/03 13:05:53;;;;;;;0.30;0.30;;;;;;;;;;5012656;28;20164;-77
2021/05/03 13:08:47;;;;;;;0.30;0.30;;;;;;;;;;5012587;28;20154;-77
2021/05/03 13:11:57;;;;;;;0.28;0.28;;;;;;;;;;5011700;28;20179;-77
2021/05/03 13:29:01;;;;;;;1.33;0.57;;;;;;;;;;5011424;28;20246;-76
2021/05/03 13:31:28;;;;;;;0.20;0.20;;;;;;;;;;5026304;28;20225;-74
2021/05/03 13:33:54;;;;;;;0.10;0.10;;;;;;;;;;5011130;28;20155;-70
2021/05/03 13:36:21;;;;;;;0.10;0.10;;;;;;;;;;5032130;28;20227;-71
2021/05/03 13:38:48;;;;;;;0.20;0.20;;;;;;;;;;5050565;28;20505;-71
2021/05/03 13:41:15;;;;;;;0.45;0.45;;;;;;;;;;5032778;28;20196;-75
2021/05/03 13:43:41;;;;;;;0.20;0.20;;;;;;;;;;5032816;28;20193;-72
2021/05/03 13:46:07;;;;;;;0.20;0.20;;;;;;;;;;5050440;28;20162;-72
2021/05/03 13:48:33;;;;;;;0.17;0.17;;;;;;;;;;5050281;28;20177;-72
2021/05/03 13:51:00;;;;;;;0.47;0.47;;;;;;;;;;5047370;28;20162;-72
2021/05/03 13:53:27;;;;;;;0.30;0.30;;;;;;;;;;5029435;28;20202;-72
2021/05/03 13:55:54;;;;;;;0.20;0.20;;;;;;;;;;5029645;28;20189;-72
2021/05/03 13:58:21;;;;;;;0.10;0.10;;;;;;;;;;5030285;28;20178;-70
2021/05/03 14:00:47;;;;;;;0.20;0.20;;;;;;;;;;5030457;28;20169;-71
2021/05/03 14:03:13;;;;;;;0.20;0.20;;;;;;;;;;5012597;28;20220;-73
2021/05/03 14:05:40;;;;;;;0.10;0.10;;;;;;;;;;5012420;28;20178;-72
2021/05/03 14:08:06;;;;;;;0.10;0.10;;;;;;;;;;5012562;28;20170;-72
2021/05/03 14:10:33;;;;;;;0.20;0.20;;;;;;;;;;5030370;28;20708;-72
2021/05/03 14:13:02;;;;;;;0.20;0.20;;;;;;;;;;5012544;28;20205;-73
2021/05/03 14:15:30;;;;;;;0.20;0.20;;;;;;;;;;5030207;28;20231;-72
2021/05/03 14:17:56;;;;;;;0.25;0.25;;;;;;;;;;5012288;28;20170;-71
2021/05/03 14:20:23;;;;;;;0.50;0.50;;;;;;;;;;5011198;28;20179;-72
2021/05/03 14:22:49;;;;;;;1.38;0.30;;;;;;;;;;5010796;28;20226;-71
2021/05/03 14:25:16;;;;;;;0.30;0.30;;;;;;;;;;5010309;28;20175;-73
2021/05/03 14:27:44;;;;;;;0.20;0.20;;;;;;;;;;5025012;28;20290;-72
2021/05/03 14:30:37;;;;;;;0.30;0.30;;;;;;;;;;5025001;28;20170;-72
2021/05/03 14:33:14;;;;;;;0.20;0.20;;;;;;;;;;5009898;28;20195;-72
2021/05/03 14:35:40;;;;;;;0.98;0.55;;;;;;;;;;5025238;28;20186;-72
2021/05/03 14:38:07;;;;;;;0.20;0.20;;;;;;;;;;5029371;28;20229;-72
2021/05/03 14:40:33;;;;;;;0.20;0.20;;;;;;;;;;5029217;28;20170;-72
2021/05/03 14:43:03;;;;;;;0.15;0.10;;;;;;;;;;5029260;28;20223;-72
2021/05/03 14:45:34;;;;;;;0.45;0.45;;;;;;;;;;5029066;28;20323;-72
2021/05/03 14:55:43;;;;;;;0.10;0.10;;;;;;;;;;5009888;28;20189;-72
2021/05/03 14:58:09;;;;;;;0.20;0.20;;;;;;;;;;4992138;28;20178;-72
2021/05/03 15:00:35;;;;;;;0.70;0.70;;;;;;;;;;4992100;28;20270;-73
2021/05/03 15:03:01;;;;;;;0.15;0.15;;;;;;;;;;5009333;28;20195;-72
2021/05/03 15:05:28;;;;;;;0.30;0.30;;;;;;;;;;5009077;28;20197;-72
2021/05/03 15:07:54;;;;;;;0.40;0.40;;;;;;;;;;5010968;28;20587;-73
2021/05/03 15:10:21;;;;;;;0.30;0.30;;;;;;;;;;5029003;28;20155;-72
2021/05/03 15:12:57;;;;;;;0.05;0.05;;;;;;;;;;5011294;28;20198;-73
2021/05/03 15:15:36;;;;;;;0.10;0.10;;;;;;;;;;5011157;28;20169;-73
2021/05/03 15:18:15;;;;;;;0.10;0.10;;;;;;;;;;5011020;28;20178;-72
2021/05/03 15:23:26;;;;;;;0.25;0.25;;;;;;;;;;5027918;28;20228;-72
2021/05/03 15:25:56;;;;;;;0.10;0.10;;;;;;;;;;5026699;28;20162;-72
2021/05/03 15:28:32;;;;;;;0.13;0.13;;;;;;;;;;5028017;28;20214;-72
2021/05/03 15:33:35;;;;;;;0.30;0.30;;;;;;;;;;5027712;28;20174;-72
2021/05/03 15:36:06;;;;;;;6.03;0.85;;;;;;;;;;5027674;28;20162;-72
2021/05/03 15:38:32;;;;;;;0.45;0.45;;;;;;;;;;5027632;28;20173;-72
2021/05/03 15:40:59;;;;;;;0.57;0.50;;;;;;;;;;5027305;28;20194;-74
2021/05/03 15:43:27;;;;;;;0.17;0.17;;;;;;;;;;5009275;28;20194;-74